sensor_id;sensor_type;location;lat;lon;timestamp;temperature;humidity
13426;DHT22;6785;57.918;12.530;2023-05-07T00:02:14;4.80;99.90
13426;DHT22;6785;57.918;12.530;2023-05-07T00:04:41;4.80;99.90
13426;DHT22;6785;57.918;12.530;2023-05-07T00:07:08;4.80;99.90
13426;DHT22;6785;57.918;12.530;2023-05-07T00:09:36;4.80;99.90
13426;DHT22;6785;57.918;12.530;2023-05-07T00:12:04;4.80;99.90
13426;DHT22;6785;57.918;12.530;2023-05-07T00:14:31;4.70;99.90
13426;DHT22;6785;57.918;12.530;2023-05-07T00:16:58;4.60;99.90
13426;DHT22;6785;57.918;12.530;2023-05-07T00:19:25;4.60;99.90
13426;DHT22;6785;57.918;12.530;2023-05-07T00:21:52;4.50;99.90
13426;DHT22;6785;57.918;12.530;2023-05-07T00:24:20;4.50;99.90
13426;DHT22;6785;57.918;12.530;2023-05-07T00:26:46;4.50;99.90
13426;DHT22;6785;57.918;12.530;2023-05-07T00:29:15;4.40;99.90
13426;DHT22;6785;57.918;12.530;2023-05-07T00:31:42;4.40;99.90
13426;DHT22;6785;57.918;12.530;2023-05-07T00:34:08;4.30;99.90
13426;DHT22;6785;57.918;12.530;2023-05-07T00:36:35;4.20;99.90
13426;DHT22;6785;57.918;12.530;2023-05-07T00:39:02;4.20;99.90
13426;DHT22;6785;57.918;12.530;2023-05-07T00:41:29;4.20;99.90
13426;DHT22;6785;57.918;12.530;2023-05-07T00:43:56;4.10;99.90
13426;DHT22;6785;57.918;12.530;2023-05-07T00:46:24;4.10;99.90
13426;DHT22;6785;57.918;12.530;2023-05-07T00:48:51;4.10;99.90
13426;DHT22;6785;57.918;12.530;2023-05-07T00:51:19;4.00;99.90
13426;DHT22;6785;57.918;12.530;2023-05-07T00:53:46;4.00;99.90
13426;DHT22;6785;57.918;12.530;2023-05-07T00:56:13;3.90;99.90
13426;DHT22;6785;57.918;12.530;2023-05-07T00:58:40;3.90;99.90
13426;DHT22;6785;57.918;12.530;2023-05-07T01:01:07;3.90;99.90
13426;DHT22;6785;57.918;12.530;2023-05-07T01:03:35;3.90;99.90
13426;DHT22;6785;57.918;12.530;2023-05-07T01:06:03;3.80;99.90
13426;DHT22;6785;57.918;12.530;2023-05-07T01:08:30;3.70;99.90
13426;DHT22;6785;57.918;12.530;2023-05-07T01:10:57;3.50;99.90
13426;DHT22;6785;57.918;12.530;2023-05-07T01:13:25;3.40;99.90
13426;DHT22;6785;57.918;12.530;2023-05-07T01:15:52;3.40;99.90
13426;DHT22;6785;57.918;12.530;2023-05-07T01:18:18;3.30;99.90
13426;DHT22;6785;57.918;12.530;2023-05-07T01:20:47;3.20;99.90
13426;DHT22;6785;57.918;12.530;2023-05-07T01:23:15;3.20;99.90
13426;DHT22;6785;57.918;12.530;2023-05-07T01:25:42;3.20;99.90
13426;DHT22;6785;57.918;12.530;2023-05-07T01:28:09;3.10;99.90
13426;DHT22;6785;57.918;12.530;2023-05-07T01:30:36;3.10;99.90
13426;DHT22;6785;57.918;12.530;2023-05-07T01:33:08;3.00;99.90
13426;DHT22;6785;57.918;12.530;2023-05-07T01:35:38;2.90;99.90
13426;DHT22;6785;57.918;12.530;2023-05-07T01:38:06;2.90;99.90
13426;DHT22;6785;57.918;12.530;2023-05-07T01:40:35;2.80;99.90
13426;DHT22;6785;57.918;12.530;2023-05-07T01:43:03;2.80;99.90
13426;DHT22;6785;57.918;12.530;2023-05-07T01:45:30;2.60;99.90
13426;DHT22;6785;57.918;12.530;2023-05-07T01:47:58;2.60;99.90
13426;DHT22;6785;57.918;12.530;2023-05-07T01:50:25;2.70;99.90
13426;DHT22;6785;57.918;12.530;2023-05-07T01:52:53;2.60;99.90
13426;DHT22;6785;57.918;12.530;2023-05-07T01:55:19;2.50;99.90
13426;DHT22;6785;57.918;12.530;2023-05-07T01:57:47;2.50;99.90
13426;DHT22;6785;57.918;12.530;2023-05-07T02:00:15;2.50;99.90
13426;DHT22;6785;57.918;12.530;2023-05-07T02:02:43;2.50;99.90
13426;DHT22;6785;57.918;12.530;2023-05-07T02:05:09;2.50;99.90
13426;DHT22;6785;57.918;12.530;2023-05-07T02:07:36;2.50;99.90
13426;DHT22;6785;57.918;12.530;2023-05-07T02:10:04;2.40;99.90
13426;DHT22;6785;57.918;12.530;2023-05-07T02:12:31;2.50;99.90
13426;DHT22;6785;57.918;12.530;2023-05-07T02:14:59;2.50;99.90
13426;DHT22;6785;57.918;12.530;2023-05-07T02:17:27;2.50;99.90
13426;DHT22;6785;57.918;12.530;2023-05-07T02:19:57;2.50;99.90
13426;DHT22;6785;57.918;12.530;2023-05-07T02:22:23;2.50;99.90
13426;DHT22;6785;57.918;12.530;2023-05-07T02:24:50;2.40;99.90
13426;DHT22;6785;57.918;12.530;2023-05-07T02:27:17;2.40;99.90
13426;DHT22;6785;57.918;12.530;2023-05-07T02:29:44;2.40;99.90
13426;DHT22;6785;57.918;12.530;2023-05-07T02:32:12;2.30;99.90
13426;DHT22;6785;57.918;12.530;2023-05-07T02:34:38;2.30;99.90
13426;DHT22;6785;57.918;12.530;2023-05-07T02:37:05;2.30;99.90
13426;DHT22;6785;57.918;12.530;2023-05-07T02:39:32;2.30;99.90
13426;DHT22;6785;57.918;12.530;2023-05-07T02:41:58;2.30;99.90
13426;DHT22;6785;57.918;12.530;2023-05-07T02:44:25;2.20;99.90
13426;DHT22;6785;57.918;12.530;2023-05-07T02:46:52;2.20;99.90
13426;DHT22;6785;57.918;12.530;2023-05-07T02:49:20;2.20;99.90
13426;DHT22;6785;57.918;12.530;2023-05-07T02:51:47;2.10;99.90
13426;DHT22;6785;57.918;12.530;2023-05-07T02:54:14;2.10;99.90
13426;DHT22;6785;57.918;12.530;2023-05-07T02:56:41;2.10;99.90
13426;DHT22;6785;57.918;12.530;2023-05-07T02:59:08;2.00;99.90
13426;DHT22;6785;57.918;12.530;2023-05-07T03:01:35;2.00;99.90
13426;DHT22;6785;57.918;12.530;2023-05-07T03:04:02;2.00;99.90
13426;DHT22;6785;57.918;12.530;2023-05-07T03:06:30;1.90;99.90
13426;DHT22;6785;57.918;12.530;2023-05-07T03:08:57;1.90;99.90
13426;DHT22;6785;57.918;12.530;2023-05-07T03:11:24;1.90;99.90
13426;DHT22;6785;57.918;12.530;2023-05-07T03:13:51;1.80;99.90
13426;DHT22;6785;57.918;12.530;2023-05-07T03:16:18;1.80;99.90
13426;DHT22;6785;57.918;12.530;2023-05-07T03:18:45;1.70;99.90
13426;DHT22;6785;57.918;12.530;2023-05-07T03:21:12;1.60;99.90
13426;DHT22;6785;57.918;12.530;2023-05-07T03:23:40;1.60;99.90
13426;DHT22;6785;57.918;12.530;2023-05-07T03:26:07;1.60;99.90
13426;DHT22;6785;57.918;12.530;2023-05-07T03:28:33;1.60;99.90
13426;DHT22;6785;57.918;12.530;2023-05-07T03:31:00;1.60;99.90
13426;DHT22;6785;57.918;12.530;2023-05-07T03:33:27;1.50;99.90
13426;DHT22;6785;57.918;12.530;2023-05-07T03:35:54;1.50;99.90
13426;DHT22;6785;57.918;12.530;2023-05-07T03:38:21;1.40;99.90
13426;DHT22;6785;57.918;12.530;2023-05-07T03:40:49;1.40;99.90
13426;DHT22;6785;57.918;12.530;2023-05-07T03:43:16;1.40;99.90
13426;DHT22;6785;57.918;12.530;2023-05-07T03:45:43;1.40;99.90
13426;DHT22;6785;57.918;12.530;2023-05-07T03:48:10;1.40;99.90
13426;DHT22;6785;57.918;12.530;2023-05-07T03:50:37;1.50;99.90
13426;DHT22;6785;57.918;12.530;2023-05-07T03:53:04;1.50;99.90
13426;DHT22;6785;57.918;12.530;2023-05-07T03:55:31;1.60;99.90
13426;DHT22;6785;57.918;12.530;2023-05-07T03:58:00;1.60;99.90
13426;DHT22;6785;57.918;12.530;2023-05-07T04:00:26;1.70;99.90
13426;DHT22;6785;57.918;12.530;2023-05-07T04:02:54;1.70;99.90
13426;DHT22;6785;57.918;12.530;2023-05-07T04:05:20;1.70;99.90
13426;DHT22;6785;57.918;12.530;2023-05-07T04:07:47;1.80;99.90
13426;DHT22;6785;57.918;12.530;2023-05-07T04:10:14;1.80;99.90
13426;DHT22;6785;57.918;12.530;2023-05-07T04:12:40;1.90;99.90
13426;DHT22;6785;57.918;12.530;2023-05-07T04:15:10;2.00;99.90
13426;DHT22;6785;57.918;12.530;2023-05-07T04:17:37;2.00;99.90
13426;DHT22;6785;57.918;12.530;2023-05-07T04:20:05;2.10;99.90
13426;DHT22;6785;57.918;12.530;2023-05-07T04:22:32;2.20;99.90
13426;DHT22;6785;57.918;12.530;2023-05-07T04:24:59;2.20;99.90
13426;DHT22;6785;57.918;12.530;2023-05-07T04:27:26;2.30;99.90
13426;DHT22;6785;57.918;12.530;2023-05-07T04:29:53;2.40;99.90
13426;DHT22;6785;57.918;12.530;2023-05-07T04:32:22;2.50;99.90
13426;DHT22;6785;57.918;12.530;2023-05-07T04:34:50;2.50;99.90
13426;DHT22;6785;57.918;12.530;2023-05-07T04:37:17;2.60;99.90
13426;DHT22;6785;57.918;12.530;2023-05-07T04:39:44;2.70;99.90
13426;DHT22;6785;57.918;12.530;2023-05-07T04:42:14;2.80;99.90
13426;DHT22;6785;57.918;12.530;2023-05-07T04:44:43;2.80;99.90
13426;DHT22;6785;57.918;12.530;2023-05-07T04:47:10;2.90;99.90
13426;DHT22;6785;57.918;12.530;2023-05-07T04:49:38;2.90;99.90
13426;DHT22;6785;57.918;12.530;2023-05-07T04:52:05;3.00;99.90
13426;DHT22;6785;57.918;12.530;2023-05-07T04:54:32;3.00;99.90
13426;DHT22;6785;57.918;12.530;2023-05-07T04:56:59;3.10;99.90
13426;DHT22;6785;57.918;12.530;2023-05-07T04:59:26;3.10;99.90
13426;DHT22;6785;57.918;12.530;2023-05-07T05:01:53;3.30;99.90
13426;DHT22;6785;57.918;12.530;2023-05-07T05:04:20;3.40;99.90
13426;DHT22;6785;57.918;12.530;2023-05-07T05:06:48;3.40;99.90
13426;DHT22;6785;57.918;12.530;2023-05-07T05:09:15;3.50;99.90
13426;DHT22;6785;57.918;12.530;2023-05-07T05:11:42;3.60;99.90
13426;DHT22;6785;57.918;12.530;2023-05-07T05:14:09;3.70;99.90
13426;DHT22;6785;57.918;12.530;2023-05-07T05:16:36;3.80;99.90
13426;DHT22;6785;57.918;12.530;2023-05-07T05:19:03;3.90;99.90
13426;DHT22;6785;57.918;12.530;2023-05-07T05:21:30;4.00;99.90
13426;DHT22;6785;57.918;12.530;2023-05-07T05:23:58;4.10;99.90
13426;DHT22;6785;57.918;12.530;2023-05-07T05:26:25;4.10;99.90
13426;DHT22;6785;57.918;12.530;2023-05-07T05:28:53;4.20;99.90
13426;DHT22;6785;57.918;12.530;2023-05-07T05:31:22;4.40;99.90
13426;DHT22;6785;57.918;12.530;2023-05-07T05:33:49;4.50;99.90
13426;DHT22;6785;57.918;12.530;2023-05-07T05:36:19;4.60;99.90
13426;DHT22;6785;57.918;12.530;2023-05-07T05:38:46;4.70;99.90
13426;DHT22;6785;57.918;12.530;2023-05-07T05:41:14;4.90;99.90
13426;DHT22;6785;57.918;12.530;2023-05-07T05:43:41;5.00;99.90
13426;DHT22;6785;57.918;12.530;2023-05-07T05:46:08;5.10;99.90
13426;DHT22;6785;57.918;12.530;2023-05-07T05:48:37;5.30;99.90
13426;DHT22;6785;57.918;12.530;2023-05-07T05:51:04;5.30;99.90
13426;DHT22;6785;57.918;12.530;2023-05-07T05:53:31;5.40;99.90
13426;DHT22;6785;57.918;12.530;2023-05-07T05:55:57;5.40;99.90
13426;DHT22;6785;57.918;12.530;2023-05-07T05:58:26;5.60;99.90
13426;DHT22;6785;57.918;12.530;2023-05-07T06:00:52;5.80;99.90
13426;DHT22;6785;57.918;12.530;2023-05-07T06:03:20;5.90;99.90
13426;DHT22;6785;57.918;12.530;2023-05-07T06:05:47;6.00;99.90
13426;DHT22;6785;57.918;12.530;2023-05-07T06:08:14;6.10;99.90
13426;DHT22;6785;57.918;12.530;2023-05-07T06:10:41;6.20;99.90
13426;DHT22;6785;57.918;12.530;2023-05-07T06:13:08;6.40;99.90
13426;DHT22;6785;57.918;12.530;2023-05-07T06:15:36;6.50;99.90
13426;DHT22;6785;57.918;12.530;2023-05-07T06:18:03;6.60;99.90
13426;DHT22;6785;57.918;12.530;2023-05-07T06:20:30;6.80;99.90
13426;DHT22;6785;57.918;12.530;2023-05-07T06:22:57;6.90;99.90
13426;DHT22;6785;57.918;12.530;2023-05-07T06:25:24;7.10;99.90
13426;DHT22;6785;57.918;12.530;2023-05-07T06:27:51;7.30;99.90
13426;DHT22;6785;57.918;12.530;2023-05-07T06:30:17;7.40;99.90
13426;DHT22;6785;57.918;12.530;2023-05-07T06:32:45;7.60;99.90
13426;DHT22;6785;57.918;12.530;2023-05-07T06:35:12;7.70;99.90
13426;DHT22;6785;57.918;12.530;2023-05-07T06:37:39;8.00;99.90
13426;DHT22;6785;57.918;12.530;2023-05-07T06:40:08;8.10;99.90
13426;DHT22;6785;57.918;12.530;2023-05-07T06:42:35;8.10;99.70
13426;DHT22;6785;57.918;12.530;2023-05-07T06:45:03;8.30;99.90
13426;DHT22;6785;57.918;12.530;2023-05-07T06:47:29;8.70;99.40
13426;DHT22;6785;57.918;12.530;2023-05-07T06:49:57;9.00;99.10
13426;DHT22;6785;57.918;12.530;2023-05-07T06:52:24;9.30;99.40
13426;DHT22;6785;57.918;12.530;2023-05-07T06:54:51;9.40;98.20
13426;DHT22;6785;57.918;12.530;2023-05-07T06:57:18;9.70;96.70
13426;DHT22;6785;57.918;12.530;2023-05-07T06:59:45;9.60;97.70
13426;DHT22;6785;57.918;12.530;2023-05-07T07:02:11;9.80;98.10
13426;DHT22;6785;57.918;12.530;2023-05-07T07:04:38;10.10;97.10
13426;DHT22;6785;57.918;12.530;2023-05-07T07:07:06;10.10;97.00
13426;DHT22;6785;57.918;12.530;2023-05-07T07:09:33;10.30;96.10
13426;DHT22;6785;57.918;12.530;2023-05-07T07:12:00;10.40;96.30
13426;DHT22;6785;57.918;12.530;2023-05-07T07:14:27;10.40;95.50
13426;DHT22;6785;57.918;12.530;2023-05-07T07:16:53;10.70;96.70
13426;DHT22;6785;57.918;12.530;2023-05-07T07:19:20;11.00;96.30
13426;DHT22;6785;57.918;12.530;2023-05-07T07:21:47;11.20;94.60
13426;DHT22;6785;57.918;12.530;2023-05-07T07:24:15;11.50;92.80
13426;DHT22;6785;57.918;12.530;2023-05-07T07:26:46;11.70;95.90
13426;DHT22;6785;57.918;12.530;2023-05-07T07:29:13;11.90;93.70
13426;DHT22;6785;57.918;12.530;2023-05-07T07:31:40;12.10;93.00
13426;DHT22;6785;57.918;12.530;2023-05-07T07:34:07;12.10;93.10
13426;DHT22;6785;57.918;12.530;2023-05-07T07:36:33;12.20;93.00
13426;DHT22;6785;57.918;12.530;2023-05-07T07:39:00;12.40;91.10
13426;DHT22;6785;57.918;12.530;2023-05-07T07:41:28;12.30;94.20
13426;DHT22;6785;57.918;12.530;2023-05-07T07:43:55;12.50;92.20
13426;DHT22;6785;57.918;12.530;2023-05-07T07:46:22;12.70;92.90
13426;DHT22;6785;57.918;12.530;2023-05-07T07:48:49;12.90;91.30
13426;DHT22;6785;57.918;12.530;2023-05-07T07:51:15;12.80;92.20
13426;DHT22;6785;57.918;12.530;2023-05-07T07:53:42;13.00;90.70
13426;DHT22;6785;57.918;12.530;2023-05-07T07:56:09;13.00;93.10
13426;DHT22;6785;57.918;12.530;2023-05-07T07:58:37;13.10;93.10
13426;DHT22;6785;57.918;12.530;2023-05-07T08:01:04;13.40;94.20
13426;DHT22;6785;57.918;12.530;2023-05-07T08:03:31;13.40;91.00
13426;DHT22;6785;57.918;12.530;2023-05-07T08:05:58;13.40;92.30
13426;DHT22;6785;57.918;12.530;2023-05-07T08:08:25;13.50;91.30
13426;DHT22;6785;57.918;12.530;2023-05-07T08:10:52;13.60;90.20
13426;DHT22;6785;57.918;12.530;2023-05-07T08:13:19;13.80;90.60
13426;DHT22;6785;57.918;12.530;2023-05-07T08:15:47;13.60;90.70
13426;DHT22;6785;57.918;12.530;2023-05-07T08:18:14;13.60;89.80
13426;DHT22;6785;57.918;12.530;2023-05-07T08:20:40;13.60;86.50
13426;DHT22;6785;57.918;12.530;2023-05-07T08:23:07;13.60;88.70
13426;DHT22;6785;57.918;12.530;2023-05-07T08:25:34;13.60;87.30
13426;DHT22;6785;57.918;12.530;2023-05-07T08:28:01;13.60;88.90
13426;DHT22;6785;57.918;12.530;2023-05-07T08:30:28;13.60;86.20
13426;DHT22;6785;57.918;12.530;2023-05-07T08:32:56;13.60;83.80
13426;DHT22;6785;57.918;12.530;2023-05-07T08:35:23;13.20;85.60
13426;DHT22;6785;57.918;12.530;2023-05-07T08:37:51;13.30;89.50
13426;DHT22;6785;57.918;12.530;2023-05-07T08:40:18;13.30;87.10
13426;DHT22;6785;57.918;12.530;2023-05-07T08:42:48;13.50;90.40
13426;DHT22;6785;57.918;12.530;2023-05-07T08:45:15;13.60;89.90
13426;DHT22;6785;57.918;12.530;2023-05-07T08:47:46;13.60;87.20
13426;DHT22;6785;57.918;12.530;2023-05-07T08:50:15;13.70;90.90
13426;DHT22;6785;57.918;12.530;2023-05-07T08:52:42;13.80;86.50
13426;DHT22;6785;57.918;12.530;2023-05-07T08:55:09;13.40;90.90
13426;DHT22;6785;57.918;12.530;2023-05-07T08:57:36;13.50;87.50
13426;DHT22;6785;57.918;12.530;2023-05-07T09:00:04;13.40;85.00
13426;DHT22;6785;57.918;12.530;2023-05-07T09:02:32;13.20;86.90
13426;DHT22;6785;57.918;12.530;2023-05-07T09:04:59;13.30;86.40
13426;DHT22;6785;57.918;12.530;2023-05-07T09:07:27;13.00;91.20
13426;DHT22;6785;57.918;12.530;2023-05-07T09:09:54;13.20;87.30
13426;DHT22;6785;57.918;12.530;2023-05-07T09:12:21;13.40;90.00
13426;DHT22;6785;57.918;12.530;2023-05-07T09:14:48;13.40;89.70
13426;DHT22;6785;57.918;12.530;2023-05-07T09:17:15;13.50;89.10
13426;DHT22;6785;57.918;12.530;2023-05-07T09:19:44;13.70;88.00
13426;DHT22;6785;57.918;12.530;2023-05-07T09:22:11;13.70;90.00
13426;DHT22;6785;57.918;12.530;2023-05-07T09:24:39;13.60;87.30
13426;DHT22;6785;57.918;12.530;2023-05-07T09:27:07;13.60;88.40
13426;DHT22;6785;57.918;12.530;2023-05-07T09:29:35;13.50;80.80
13426;DHT22;6785;57.918;12.530;2023-05-07T09:32:03;13.40;85.80
13426;DHT22;6785;57.918;12.530;2023-05-07T09:34:30;13.40;87.20
13426;DHT22;6785;57.918;12.530;2023-05-07T09:36:58;13.40;82.80
13426;DHT22;6785;57.918;12.530;2023-05-07T09:39:25;13.50;85.60
13426;DHT22;6785;57.918;12.530;2023-05-07T09:41:53;13.50;82.80
13426;DHT22;6785;57.918;12.530;2023-05-07T09:44:21;13.20;84.00
13426;DHT22;6785;57.918;12.530;2023-05-07T09:46:53;13.20;87.10
13426;DHT22;6785;57.918;12.530;2023-05-07T09:49:22;13.30;83.30
13426;DHT22;6785;57.918;12.530;2023-05-07T09:51:51;13.30;86.90
13426;DHT22;6785;57.918;12.530;2023-05-07T09:54:19;13.40;85.50
13426;DHT22;6785;57.918;12.530;2023-05-07T09:56:45;13.50;86.40
13426;DHT22;6785;57.918;12.530;2023-05-07T09:59:16;13.50;83.10
13426;DHT22;6785;57.918;12.530;2023-05-07T10:01:43;13.70;82.00
13426;DHT22;6785;57.918;12.530;2023-05-07T10:04:11;13.60;86.90
13426;DHT22;6785;57.918;12.530;2023-05-07T10:06:38;13.70;84.10
13426;DHT22;6785;57.918;12.530;2023-05-07T10:09:05;13.90;83.60
13426;DHT22;6785;57.918;12.530;2023-05-07T10:11:32;13.90;82.00
13426;DHT22;6785;57.918;12.530;2023-05-07T10:14:01;13.90;90.30
13426;DHT22;6785;57.918;12.530;2023-05-07T10:16:31;13.90;91.20
13426;DHT22;6785;57.918;12.530;2023-05-07T10:19:02;14.10;80.80
13426;DHT22;6785;57.918;12.530;2023-05-07T10:21:29;14.20;78.20
13426;DHT22;6785;57.918;12.530;2023-05-07T10:23:59;14.20;78.80
13426;DHT22;6785;57.918;12.530;2023-05-07T10:26:27;14.10;83.90
13426;DHT22;6785;57.918;12.530;2023-05-07T10:28:59;14.10;79.90
13426;DHT22;6785;57.918;12.530;2023-05-07T10:31:48;14.20;82.00
13426;DHT22;6785;57.918;12.530;2023-05-07T10:34:20;14.20;79.60
13426;DHT22;6785;57.918;12.530;2023-05-07T10:36:48;14.30;82.20
13426;DHT22;6785;57.918;12.530;2023-05-07T10:39:16;14.30;80.90
13426;DHT22;6785;57.918;12.530;2023-05-07T10:41:42;14.40;82.60
13426;DHT22;6785;57.918;12.530;2023-05-07T10:44:09;14.50;81.30
13426;DHT22;6785;57.918;12.530;2023-05-07T10:46:38;14.50;82.00
13426;DHT22;6785;57.918;12.530;2023-05-07T10:49:09;14.70;81.10
13426;DHT22;6785;57.918;12.530;2023-05-07T10:51:37;14.70;80.10
13426;DHT22;6785;57.918;12.530;2023-05-07T10:54:20;14.80;81.10
13426;DHT22;6785;57.918;12.530;2023-05-07T10:56:47;14.70;82.90
13426;DHT22;6785;57.918;12.530;2023-05-07T10:59:35;14.80;82.70
13426;DHT22;6785;57.918;12.530;2023-05-07T11:02:09;15.00;86.30
13426;DHT22;6785;57.918;12.530;2023-05-07T11:04:37;15.00;78.30
13426;DHT22;6785;57.918;12.530;2023-05-07T11:07:26;15.00;83.00
13426;DHT22;6785;57.918;12.530;2023-05-07T11:10:00;15.20;80.80
13426;DHT22;6785;57.918;12.530;2023-05-07T11:12:54;15.20;75.30
13426;DHT22;6785;57.918;12.530;2023-05-07T11:15:41;15.10;74.90
13426;DHT22;6785;57.918;12.530;2023-05-07T11:18:10;15.10;77.20
13426;DHT22;6785;57.918;12.530;2023-05-07T11:20:54;15.30;80.10
13426;DHT22;6785;57.918;12.530;2023-05-07T11:23:55;15.30;76.30
13426;DHT22;6785;57.918;12.530;2023-05-07T11:26:27;15.40;79.70
13426;DHT22;6785;57.918;12.530;2023-05-07T11:28:54;15.40;78.60
13426;DHT22;6785;57.918;12.530;2023-05-07T11:31:23;15.50;83.80
13426;DHT22;6785;57.918;12.530;2023-05-07T11:33:53;15.50;78.20
13426;DHT22;6785;57.918;12.530;2023-05-07T11:36:21;15.40;83.00
13426;DHT22;6785;57.918;12.530;2023-05-07T11:38:48;15.40;79.00
13426;DHT22;6785;57.918;12.530;2023-05-07T11:41:16;15.40;78.90
13426;DHT22;6785;57.918;12.530;2023-05-07T11:43:58;15.50;78.40
13426;DHT22;6785;57.918;12.530;2023-05-07T11:46:26;15.20;79.60
13426;DHT22;6785;57.918;12.530;2023-05-07T11:48:56;15.20;85.70
13426;DHT22;6785;57.918;12.530;2023-05-07T11:51:24;15.10;81.80
13426;DHT22;6785;57.918;12.530;2023-05-07T11:53:53;15.10;79.80
13426;DHT22;6785;57.918;12.530;2023-05-07T11:56:20;15.10;89.10
13426;DHT22;6785;57.918;12.530;2023-05-07T11:58:48;15.20;82.80
13426;DHT22;6785;57.918;12.530;2023-05-07T12:01:16;15.40;80.20
13426;DHT22;6785;57.918;12.530;2023-05-07T12:03:44;15.50;79.90
13426;DHT22;6785;57.918;12.530;2023-05-07T12:06:14;15.40;82.60
13426;DHT22;6785;57.918;12.530;2023-05-07T12:08:42;15.30;83.00
13426;DHT22;6785;57.918;12.530;2023-05-07T12:11:10;15.40;78.90
13426;DHT22;6785;57.918;12.530;2023-05-07T12:13:39;15.40;86.20
13426;DHT22;6785;57.918;12.530;2023-05-07T12:16:06;15.50;79.80
13426;DHT22;6785;57.918;12.530;2023-05-07T12:18:37;15.70;76.60
13426;DHT22;6785;57.918;12.530;2023-05-07T12:21:05;15.80;78.40
13426;DHT22;6785;57.918;12.530;2023-05-07T12:23:35;15.80;77.70
13426;DHT22;6785;57.918;12.530;2023-05-07T12:26:02;15.80;83.70
13426;DHT22;6785;57.918;12.530;2023-05-07T12:28:29;15.90;79.00
13426;DHT22;6785;57.918;12.530;2023-05-07T12:30:57;15.90;79.50
13426;DHT22;6785;57.918;12.530;2023-05-07T12:33:25;16.00;81.30
13426;DHT22;6785;57.918;12.530;2023-05-07T12:35:54;16.00;77.70
13426;DHT22;6785;57.918;12.530;2023-05-07T12:38:21;16.10;77.40
13426;DHT22;6785;57.918;12.530;2023-05-07T12:40:50;16.00;75.30
13426;DHT22;6785;57.918;12.530;2023-05-07T12:43:20;16.00;81.70
13426;DHT22;6785;57.918;12.530;2023-05-07T12:45:49;16.10;87.80
13426;DHT22;6785;57.918;12.530;2023-05-07T12:48:16;16.20;83.60
13426;DHT22;6785;57.918;12.530;2023-05-07T12:50:43;16.40;82.40
13426;DHT22;6785;57.918;12.530;2023-05-07T12:53:11;16.60;77.60
13426;DHT22;6785;57.918;12.530;2023-05-07T12:55:42;16.60;76.20
13426;DHT22;6785;57.918;12.530;2023-05-07T12:58:15;16.70;78.40
13426;DHT22;6785;57.918;12.530;2023-05-07T13:00:42;16.70;80.90
13426;DHT22;6785;57.918;12.530;2023-05-07T13:03:09;16.80;75.80
13426;DHT22;6785;57.918;12.530;2023-05-07T13:05:36;16.80;76.40
13426;DHT22;6785;57.918;12.530;2023-05-07T13:08:03;16.90;80.60
13426;DHT22;6785;57.918;12.530;2023-05-07T13:10:30;16.90;80.80
13426;DHT22;6785;57.918;12.530;2023-05-07T13:12:58;16.70;75.80
13426;DHT22;6785;57.918;12.530;2023-05-07T13:15:26;16.80;75.90
13426;DHT22;6785;57.918;12.530;2023-05-07T13:17:53;16.70;79.30
13426;DHT22;6785;57.918;12.530;2023-05-07T13:20:20;16.70;76.60
13426;DHT22;6785;57.918;12.530;2023-05-07T13:22:47;16.70;75.60
13426;DHT22;6785;57.918;12.530;2023-05-07T13:25:14;16.80;76.00
13426;DHT22;6785;57.918;12.530;2023-05-07T13:27:40;16.90;79.00
13426;DHT22;6785;57.918;12.530;2023-05-07T13:30:07;17.10;77.50
13426;DHT22;6785;57.918;12.530;2023-05-07T13:32:35;17.10;77.50
13426;DHT22;6785;57.918;12.530;2023-05-07T13:35:02;17.10;76.60
13426;DHT22;6785;57.918;12.530;2023-05-07T13:37:30;17.10;80.40
13426;DHT22;6785;57.918;12.530;2023-05-07T13:39:56;17.00;76.60
13426;DHT22;6785;57.918;12.530;2023-05-07T13:42:23;17.00;84.90
13426;DHT22;6785;57.918;12.530;2023-05-07T13:44:50;16.90;82.50
13426;DHT22;6785;57.918;12.530;2023-05-07T13:47:16;16.90;83.40
13426;DHT22;6785;57.918;12.530;2023-05-07T13:49:44;17.00;85.90
13426;DHT22;6785;57.918;12.530;2023-05-07T13:52:11;17.00;78.10
13426;DHT22;6785;57.918;12.530;2023-05-07T13:54:38;17.10;86.00
13426;DHT22;6785;57.918;12.530;2023-05-07T13:57:05;17.00;80.20
13426;DHT22;6785;57.918;12.530;2023-05-07T13:59:32;17.10;80.30
13426;DHT22;6785;57.918;12.530;2023-05-07T14:01:59;16.90;80.20
13426;DHT22;6785;57.918;12.530;2023-05-07T14:04:26;16.90;82.60
13426;DHT22;6785;57.918;12.530;2023-05-07T14:06:54;17.00;81.40
13426;DHT22;6785;57.918;12.530;2023-05-07T14:09:21;17.00;79.30
13426;DHT22;6785;57.918;12.530;2023-05-07T14:11:47;17.00;80.70
13426;DHT22;6785;57.918;12.530;2023-05-07T14:14:16;17.10;82.90
13426;DHT22;6785;57.918;12.530;2023-05-07T14:16:43;17.00;79.80
13426;DHT22;6785;57.918;12.530;2023-05-07T14:19:10;17.00;75.20
13426;DHT22;6785;57.918;12.530;2023-05-07T14:21:37;17.00;77.60
13426;DHT22;6785;57.918;12.530;2023-05-07T14:24:06;17.00;75.50
13426;DHT22;6785;57.918;12.530;2023-05-07T14:26:33;17.10;76.30
13426;DHT22;6785;57.918;12.530;2023-05-07T14:29:00;17.10;81.50
13426;DHT22;6785;57.918;12.530;2023-05-07T14:31:27;17.10;75.10
13426;DHT22;6785;57.918;12.530;2023-05-07T14:33:54;17.10;83.00
13426;DHT22;6785;57.918;12.530;2023-05-07T14:36:23;16.80;81.30
13426;DHT22;6785;57.918;12.530;2023-05-07T14:38:51;16.70;79.50
13426;DHT22;6785;57.918;12.530;2023-05-07T14:41:21;16.70;85.20
13426;DHT22;6785;57.918;12.530;2023-05-07T14:43:48;16.70;76.50
13426;DHT22;6785;57.918;12.530;2023-05-07T14:46:16;16.60;81.50
13426;DHT22;6785;57.918;12.530;2023-05-07T14:48:44;16.60;77.10
13426;DHT22;6785;57.918;12.530;2023-05-07T14:51:12;16.50;77.50
13426;DHT22;6785;57.918;12.530;2023-05-07T14:53:39;16.50;76.20
13426;DHT22;6785;57.918;12.530;2023-05-07T14:56:06;16.20;77.40
13426;DHT22;6785;57.918;12.530;2023-05-07T14:58:34;16.00;77.70
13426;DHT22;6785;57.918;12.530;2023-05-07T15:01:01;16.10;80.40
13426;DHT22;6785;57.918;12.530;2023-05-07T15:03:28;16.10;81.00
13426;DHT22;6785;57.918;12.530;2023-05-07T15:05:55;16.10;81.60
13426;DHT22;6785;57.918;12.530;2023-05-07T15:08:22;16.10;77.90
13426;DHT22;6785;57.918;12.530;2023-05-07T15:10:49;16.10;76.20
13426;DHT22;6785;57.918;12.530;2023-05-07T15:13:16;16.00;78.10
13426;DHT22;6785;57.918;12.530;2023-05-07T15:15:44;16.10;78.40
13426;DHT22;6785;57.918;12.530;2023-05-07T15:18:11;16.00;78.10
13426;DHT22;6785;57.918;12.530;2023-05-07T15:20:38;16.00;79.30
13426;DHT22;6785;57.918;12.530;2023-05-07T15:23:05;16.00;79.10
13426;DHT22;6785;57.918;12.530;2023-05-07T15:25:35;15.90;80.80
13426;DHT22;6785;57.918;12.530;2023-05-07T15:28:02;15.80;78.50
13426;DHT22;6785;57.918;12.530;2023-05-07T15:30:29;15.80;81.10
13426;DHT22;6785;57.918;12.530;2023-05-07T15:32:57;15.80;77.90
13426;DHT22;6785;57.918;12.530;2023-05-07T15:35:24;15.70;82.00
13426;DHT22;6785;57.918;12.530;2023-05-07T15:37:51;15.70;78.70
13426;DHT22;6785;57.918;12.530;2023-05-07T15:40:18;15.70;81.80
13426;DHT22;6785;57.918;12.530;2023-05-07T15:42:45;15.80;82.20